Kezdőlap
METAR-TAF:

METAR-TAF

Repülőterek :

Aomori, Japán

földrajzi szélesség: 40-44N, földrajzi hosszúság: 140-42E, magasság: 199 m

Jelenlegi meteorológiai megfigyelések

A jelentés 2 órával és 29 perccel ezelõtt készült, 12:00 UTC
Nyugati szél 18 kt
Hőmérséklet 10°C
Páratartalom 82%
Légköri nyomás 1006 hPa
Látótávolság 10 km, vagy több
Kevés felhő 1500 lábon
Szakadozott felhőzet 2000 lábon

METAR: RJSA 251200Z 26018KT 9999 FEW015 BKN020 10/07 Q1006

Idő: 23:29 (14:29 UTC)

Előrejelzés

A jelentés 3 órával és 20 perccel ezelõtt készült, 11:09 UTC
Az előrejelzés 25-én 12 óra UTC és 26-én 18 óra UTC között érvényes
Dél-délnyugati szél 12 kt
Látótávolság 10 km, vagy több
Kevés felhő 2000 lábon

TAF: RJSA 251109Z 2512/2618 21012KT 9999 FEW020

Meteorológiai megfigyelések és előrejelzések több, mint 4000 repülőtéren (METAR és TAF jelentéseket).

A térképen piros és sárga pontok jelzik az elérhető meteorológiai állomásokat.

Mozgassa az egeret a pont fölött, hogy megjelenjen az állomás neve.

Azután kattintson az időjárási megfigyelések és előrejelzések megtekintéséhez.

A térkép megváltoztatása: kattintson a fekete keresztel jelölt zöld gombra ráközelítéshez, a vonallal jelölt zöld gombra távolításhoz, vagy a zöld nyilakra a szomszédos térképek eléréséhez.


METAR-TAF: